Time;durP1;ratioP1;P1;durP2;ratioP2;P2;SDS_P1;SDS_P2;PMS_P1;PMS_P2;Temp;Humidity;BMP_temperature;BMP_pressure;BME280_temperature;BME280_humidity;BME280_pressure;Samples;Min_cycle;Max_cycle;Signal;HPM_P1;HPM_P2
2024/01/10 00:02:36;;;;;;;12.60;5.82;;;;;;;;;;10325079;28;20038;-56
2024/01/10 00:07:37;;;;;;;7.68;5.30;;;;;;;;;;10298631;28;20413;-56
2024/01/10 00:12:38;;;;;;;8.23;4.95;;;;;;;;;;10313156;28;20101;-60
2024/01/10 00:17:40;;;;;;;9.48;4.55;;;;;;;;;;10324562;28;20434;-55
2024/01/10 00:22:41;;;;;;;7.03;4.93;;;;;;;;;;10312488;28;20037;-61
2024/01/10 00:27:41;;;;;;;7.13;5.03;;;;;;;;;;10347490;28;20479;-54
2024/01/10 00:32:42;;;;;;;9.90;4.68;;;;;;;;;;10331836;28;20228;-54
2024/01/10 00:37:42;;;;;;;6.72;4.70;;;;;;;;;;10312245;28;20046;-53
2024/01/10 00:42:43;;;;;;;5.93;4.97;;;;;;;;;;10316830;28;20366;-51
2024/01/10 00:47:43;;;;;;;6.70;4.63;;;;;;;;;;10326465;28;20367;-53
2024/01/10 00:52:45;;;;;;;6.88;4.85;;;;;;;;;;10324197;28;20425;-50
2024/01/10 00:57:45;;;;;;;7.30;4.70;;;;;;;;;;10313399;28;20038;-52
2024/01/10 01:02:46;;;;;;;6.88;4.65;;;;;;;;;;10308333;28;20031;-53
2024/01/10 01:07:46;;;;;;;7.93;5.13;;;;;;;;;;10311019;28;20041;-52
2024/01/10 01:12:47;;;;;;;9.38;5.00;;;;;;;;;;10332376;28;20034;-53
2024/01/10 01:17:48;;;;;;;6.47;4.57;;;;;;;;;;10344921;28;20041;-53
2024/01/10 01:22:48;;;;;;;7.32;5.15;;;;;;;;;;10316120;28;20034;-52
2024/01/10 01:27:49;;;;;;;6.60;4.93;;;;;;;;;;10309113;28;20037;-52
2024/01/10 01:32:49;;;;;;;7.10;4.80;;;;;;;;;;10330856;28;20022;-52
2024/01/10 01:37:51;;;;;;;8.73;5.38;;;;;;;;;;10326895;28;20043;-58
2024/01/10 01:42:51;;;;;;;6.20;4.25;;;;;;;;;;10331660;28;20513;-53
2024/01/10 01:47:52;;;;;;;9.60;4.28;;;;;;;;;;10330751;28;20030;-53
2024/01/10 01:52:52;;;;;;;8.60;5.00;;;;;;;;;;10318073;28;20050;-52
2024/01/10 01:57:53;;;;;;;7.40;4.88;;;;;;;;;;10319838;28;20046;-52
2024/01/10 02:02:54;;;;;;;6.32;4.78;;;;;;;;;;10306842;28;20035;-52
2024/01/10 02:07:55;;;;;;;6.65;4.20;;;;;;;;;;10316238;28;20042;-53
2024/01/10 02:12:55;;;;;;;8.77;4.38;;;;;;;;;;10319644;28;20041;-53
2024/01/10 02:17:56;;;;;;;7.65;4.00;;;;;;;;;;10318090;28;20045;-55
2024/01/10 02:22:57;;;;;;;7.22;4.70;;;;;;;;;;10315839;28;20038;-53
2024/01/10 02:27:58;;;;;;;7.00;4.60;;;;;;;;;;10304327;28;20541;-54
2024/01/10 02:32:58;;;;;;;6.40;4.43;;;;;;;;;;10324680;28;20038;-53
2024/01/10 02:37:59;;;;;;;5.18;4.28;;;;;;;;;;10312869;28;20505;-53
2024/01/10 02:43:00;;;;;;;8.80;4.05;;;;;;;;;;10321260;28;20022;-53
2024/01/10 02:48:00;;;;;;;6.78;4.65;;;;;;;;;;10321684;28;20418;-53
2024/01/10 02:53:01;;;;;;;6.85;4.43;;;;;;;;;;10301569;28;20034;-54
2024/01/10 02:58:02;;;;;;;7.57;4.53;;;;;;;;;;10318778;28;20063;-53
2024/01/10 03:03:02;;;;;;;5.40;4.40;;;;;;;;;;10311787;28;20407;-52
2024/01/10 03:08:06;;;;;;;9.35;4.57;;;;;;;;;;10320546;28;20425;-54
2024/01/10 03:13:07;;;;;;;4.82;3.78;;;;;;;;;;10325944;28;20100;-52
2024/01/10 03:18:07;;;;;;;5.72;4.13;;;;;;;;;;10316302;28;20092;-50
2024/01/10 03:23:08;;;;;;;5.65;4.47;;;;;;;;;;10320190;28;20042;-53
2024/01/10 03:28:08;;;;;;;7.35;4.10;;;;;;;;;;10323019;28;20041;-52
2024/01/10 03:33:09;;;;;;;5.03;3.92;;;;;;;;;;10319755;28;20034;-52
2024/01/10 03:38:09;;;;;;;5.93;4.00;;;;;;;;;;10321655;28;20154;-51
2024/01/10 03:43:11;;;;;;;4.72;3.90;;;;;;;;;;10316899;28;20470;-50
2024/01/10 03:48:12;;;;;;;8.00;4.20;;;;;;;;;;10348347;28;20052;-55
2024/01/10 03:53:13;;;;;;;5.05;4.00;;;;;;;;;;10336217;28;20035;-51
2024/01/10 03:58:13;;;;;;;5.97;4.05;;;;;;;;;;10311192;28;20050;-52
2024/01/10 04:03:14;;;;;;;7.85;4.10;;;;;;;;;;10323107;28;20026;-48
2024/01/10 04:08:15;;;;;;;5.93;3.75;;;;;;;;;;10311873;28;20034;-50
2024/01/10 04:13:16;;;;;;;4.93;3.72;;;;;;;;;;10325028;28;20064;-53
2024/01/10 04:18:16;;;;;;;5.15;3.70;;;;;;;;;;10325534;28;20092;-53
2024/01/10 04:23:17;;;;;;;3.80;3.38;;;;;;;;;;10322342;28;20061;-53
2024/01/10 04:28:17;;;;;;;4.63;3.80;;;;;;;;;;10333488;28;20026;-56
2024/01/10 04:33:18;;;;;;;4.05;3.47;;;;;;;;;;10322499;28;20030;-54
2024/01/10 04:38:18;;;;;;;6.38;3.88;;;;;;;;;;10317823;28;20054;-59
2024/01/10 04:43:20;;;;;;;5.57;4.15;;;;;;;;;;10321828;28;20177;-53
2024/01/10 04:48:20;;;;;;;4.53;3.60;;;;;;;;;;10326265;28;20072;-53
2024/01/10 04:53:21;;;;;;;5.20;3.75;;;;;;;;;;10327817;28;20042;-51
2024/01/10 04:58:21;;;;;;;4.90;3.97;;;;;;;;;;10352129;28;20042;-51
2024/01/10 05:03:22;;;;;;;4.80;3.45;;;;;;;;;;10319395;28;20390;-53
2024/01/10 05:08:23;;;;;;;4.50;3.65;;;;;;;;;;10315107;28;20494;-50
2024/01/10 05:13:24;;;;;;;4.13;3.67;;;;;;;;;;10326133;28;20038;-52
2024/01/10 05:18:24;;;;;;;5.15;3.83;;;;;;;;;;10317986;28;20026;-54
2024/01/10 05:23:25;;;;;;;5.93;4.18;;;;;;;;;;10311177;28;20045;-53
2024/01/10 05:28:26;;;;;;;5.28;3.63;;;;;;;;;;10322180;28;20030;-53
2024/01/10 05:33:26;;;;;;;4.97;3.40;;;;;;;;;;10323573;28;20030;-52
2024/01/10 05:38:27;;;;;;;4.75;3.55;;;;;;;;;;10323248;28;20045;-51
2024/01/10 05:43:27;;;;;;;6.68;3.33;;;;;;;;;;10320067;28;20018;-54
2024/01/10 05:48:28;;;;;;;4.13;3.53;;;;;;;;;;10316922;28;20035;-53
2024/01/10 05:53:29;;;;;;;4.35;3.40;;;;;;;;;;10328561;28;20049;-53
2024/01/10 05:58:29;;;;;;;5.50;3.83;;;;;;;;;;10344374;28;20041;-51
2024/01/10 06:03:30;;;;;;;4.18;3.22;;;;;;;;;;10329436;28;20026;-53
2024/01/10 06:08:30;;;;;;;3.92;3.10;;;;;;;;;;10305428;28;20042;-53
2024/01/10 06:13:31;;;;;;;4.22;3.17;;;;;;;;;;10317996;28;20034;-54
2024/01/10 06:18:31;;;;;;;3.70;3.38;;;;;;;;;;10333969;28;20088;-54
2024/01/10 06:23:32;;;;;;;4.15;3.38;;;;;;;;;;10316801;28;20027;-59
2024/01/10 06:28:32;;;;;;;7.38;4.10;;;;;;;;;;10304480;28;20034;-57
2024/01/10 06:33:33;;;;;;;4.13;3.30;;;;;;;;;;10321584;28;20590;-57
2024/01/10 06:38:34;;;;;;;4.13;3.45;;;;;;;;;;10302308;28;20541;-56
2024/01/10 06:43:34;;;;;;;5.55;3.67;;;;;;;;;;10305554;28;20027;-57
2024/01/10 06:48:35;;;;;;;6.25;4.47;;;;;;;;;;10297753;28;20041;-53
2024/01/10 06:53:36;;;;;;;11.43;4.22;;;;;;;;;;10313715;28;20337;-52
2024/01/10 06:58:36;;;;;;;7.10;4.68;;;;;;;;;;10323243;28;20030;-51
2024/01/10 07:03:37;;;;;;;7.15;5.15;;;;;;;;;;10329440;28;20034;-53
2024/01/10 07:08:38;;;;;;;7.93;4.68;;;;;;;;;;10326320;28;20026;-52
2024/01/10 07:13:38;;;;;;;11.30;6.40;;;;;;;;;;10334510;28;20030;-53
2024/01/10 07:18:40;;;;;;;14.10;5.55;;;;;;;;;;10324293;28;20033;-54
2024/01/10 07:23:42;;;;;;;18.83;5.50;;;;;;;;;;10347195;28;20034;-57
2024/01/10 07:28:43;;;;;;;16.02;6.15;;;;;;;;;;10338033;28;20026;-52
2024/01/10 07:33:44;;;;;;;12.02;6.38;;;;;;;;;;10350489;28;20470;-57
2024/01/10 07:38:44;;;;;;;12.50;5.88;;;;;;;;;;10346336;28;20050;-58
2024/01/10 07:43:45;;;;;;;14.57;5.65;;;;;;;;;;10356147;28;20026;-54
2024/01/10 07:48:45;;;;;;;12.50;5.82;;;;;;;;;;10341216;28;20037;-52
2024/01/10 07:53:46;;;;;;;12.57;6.20;;;;;;;;;;10350038;28;20049;-53
2024/01/10 07:58:46;;;;;;;9.60;5.53;;;;;;;;;;10336505;28;20030;-48
2024/01/10 08:03:47;;;;;;;9.90;5.43;;;;;;;;;;10329124;28;20756;-51
2024/01/10 08:08:48;;;;;;;9.88;5.90;;;;;;;;;;10328922;28;20062;-53
2024/01/10 08:13:48;;;;;;;18.08;6.38;;;;;;;;;;10328542;28;20387;-51
2024/01/10 08:18:49;;;;;;;10.10;5.18;;;;;;;;;;10328945;28;20065;-50
2024/01/10 08:23:49;;;;;;;9.30;5.68;;;;;;;;;;10326749;28;20030;-52
2024/01/10 08:28:50;;;;;;;9.18;5.78;;;;;;;;;;10339226;28;20441;-48
2024/01/10 08:33:50;;;;;;;11.98;5.60;;;;;;;;;;10327865;28;20045;-50
2024/01/10 08:38:51;;;;;;;18.15;5.72;;;;;;;;;;10336012;28;20049;-51
2024/01/10 08:43:52;;;;;;;8.18;5.32;;;;;;;;;;10351505;28;20022;-52
2024/01/10 08:48:53;;;;;;;11.18;6.00;;;;;;;;;;10325200;28;20037;-50
2024/01/10 08:53:53;;;;;;;8.07;5.03;;;;;;;;;;10314088;28;20045;-57
2024/01/10 08:58:54;;;;;;;10.38;5.95;;;;;;;;;;10332784;28;20108;-51
2024/01/10 09:03:55;;;;;;;15.13;5.78;;;;;;;;;;10326599;28;20050;-49
2024/01/10 09:08:56;;;;;;;9.70;4.78;;;;;;;;;;10323982;28;20034;-51
2024/01/10 09:13:56;;;;;;;10.30;4.85;;;;;;;;;;10316829;28;20034;-49
2024/01/10 09:18:58;;;;;;;7.72;5.13;;;;;;;;;;10326909;28;20034;-52
2024/01/10 09:23:58;;;;;;;8.30;5.57;;;;;;;;;;10338841;28;20027;-48
2024/01/10 09:28:59;;;;;;;8.63;4.80;;;;;;;;;;10338675;28;20058;-51
2024/01/10 09:33:59;;;;;;;7.30;5.40;;;;;;;;;;10322422;28;20026;-50
2024/01/10 09:39:02;;;;;;;9.30;5.57;;;;;;;;;;10317030;28;20092;-48
2024/01/10 09:44:03;;;;;;;6.07;4.57;;;;;;;;;;10316271;28;20041;-50
2024/01/10 09:49:03;;;;;;;7.05;5.05;;;;;;;;;;10321692;28;20060;-49
2024/01/10 09:54:04;;;;;;;7.47;5.38;;;;;;;;;;10316281;28;20021;-50
2024/01/10 09:59:10;;;;;;;10.00;5.38;;;;;;;;;;10327837;28;20022;-50
2024/01/10 10:04:12;;;;;;;10.68;4.60;;;;;;;;;;10324577;28;20114;-49
2024/01/10 10:09:15;;;;;;;7.30;4.72;;;;;;;;;;10325946;28;20160;-47
2024/01/10 10:14:18;;;;;;;7.93;4.68;;;;;;;;;;10323718;28;20049;-47
2024/01/10 10:19:24;;;;;;;5.25;4.38;;;;;;;;;;10324997;28;20025;-48
2024/01/10 10:24:25;;;;;;;9.30;5.03;;;;;;;;;;10322845;28;20031;-48
2024/01/10 10:29:26;;;;;;;6.50;4.55;;;;;;;;;;10320762;28;20022;-48
2024/01/10 10:34:32;;;;;;;9.07;4.90;;;;;;;;;;10324070;28;20097;-52
2024/01/10 10:39:32;;;;;;;6.55;4.20;;;;;;;;;;10326089;28;20042;-48
2024/01/10 10:44:38;;;;;;;6.82;4.60;;;;;;;;;;10323642;28;20053;-52
2024/01/10 10:49:52;;;;;;;11.35;4.57;;;;;;;;;;10323438;28;20042;-51
2024/01/10 10:54:55;;;;;;;8.55;4.20;;;;;;;;;;10331086;28;20105;-50
2024/01/10 10:59:57;;;;;;;5.78;4.20;;;;;;;;;;10320763;28;20441;-52
2024/01/10 11:04:59;;;;;;;8.40;4.55;;;;;;;;;;10324568;28;20088;-51
2024/01/10 11:10:01;;;;;;;5.80;4.82;;;;;;;;;;10326463;28;20034;-54
2024/01/10 11:15:13;;;;;;;7.32;4.35;;;;;;;;;;10324407;28;20113;-51
2024/01/10 11:20:58;;;;;;;7.15;4.20;;;;;;;;;;10303044;28;20381;-51
2024/01/10 11:25:59;;;;;;;7.47;4.53;;;;;;;;;;10325053;28;20383;-52
2024/01/10 11:31:00;;;;;;;9.68;4.72;;;;;;;;;;10328199;28;20030;-51
2024/01/10 11:36:18;;;;;;;7.15;4.72;;;;;;;;;;10335736;22;20149;-68
2024/01/10 11:41:35;;;;;;;11.15;4.65;;;;;;;;;;10320049;28;20026;-68
2024/01/10 11:46:38;;;;;;;7.13;4.60;;;;;;;;;;10310717;28;20042;-67
2024/01/10 11:51:47;;;;;;;6.75;5.03;;;;;;;;;;10296292;28;20026;-67
2024/01/10 11:56:47;;;;;;;7.72;5.03;;;;;;;;;;10329059;28;20030;-67
2024/01/10 12:01:48;;;;;;;9.63;4.85;;;;;;;;;;10296535;28;20504;-67
2024/01/10 12:06:49;;;;;;;5.28;4.43;;;;;;;;;;10325799;28;20064;-68
2024/01/10 12:11:50;;;;;;;8.65;5.38;;;;;;;;;;10328845;28;20034;-67
2024/01/10 12:16:52;;;;;;;7.20;4.60;;;;;;;;;;10331586;28;20046;-68
2024/01/10 12:21:53;;;;;;;10.45;4.68;;;;;;;;;;10326294;28;20092;-68
2024/01/10 12:26:55;;;;;;;5.45;4.45;;;;;;;;;;10323097;28;20069;-67
2024/01/10 12:31:56;;;;;;;6.82;4.35;;;;;;;;;;10325902;28;20025;-68
2024/01/10 12:36:56;;;;;;;7.82;4.38;;;;;;;;;;10319028;28;20502;-68
2024/01/10 12:41:58;;;;;;;9.65;4.47;;;;;;;;;;10323911;28;20034;-68
2024/01/10 12:46:59;;;;;;;10.10;4.10;;;;;;;;;;10318127;28;20111;-67
2024/01/10 12:52:00;;;;;;;6.13;4.68;;;;;;;;;;10323197;28;20038;-68
2024/01/10 12:57:00;;;;;;;6.80;4.78;;;;;;;;;;10325906;28;20028;-68
2024/01/10 13:02:01;;;;;;;5.63;4.10;;;;;;;;;;10311960;28;20033;-67
2024/01/10 13:07:02;;;;;;;8.57;4.20;;;;;;;;;;10305948;28;20027;-68
2024/01/10 13:12:03;;;;;;;9.70;4.25;;;;;;;;;;10313083;28;20119;-67
2024/01/10 13:17:04;;;;;;;5.90;4.10;;;;;;;;;;10320717;28;20482;-67
2024/01/10 13:22:04;;;;;;;8.05;4.13;;;;;;;;;;10315981;28;20034;-68
2024/01/10 13:27:05;;;;;;;4.72;4.07;;;;;;;;;;10334069;28;20038;-68
2024/01/10 13:32:07;;;;;;;7.22;4.63;;;;;;;;;;10290019;28;20030;-67
2024/01/10 13:37:10;;;;;;;5.90;3.65;;;;;;;;;;10284624;28;20052;-68
2024/01/10 13:42:10;;;;;;;5.70;3.85;;;;;;;;;;10302460;28;20089;-68
2024/01/10 13:47:11;;;;;;;7.45;4.30;;;;;;;;;;10328100;28;20034;-68
2024/01/10 13:52:11;;;;;;;5.93;4.47;;;;;;;;;;10317382;28;20022;-68
2024/01/10 13:57:12;;;;;;;7.43;4.43;;;;;;;;;;10308055;28;20125;-67
2024/01/10 14:02:13;;;;;;;6.00;4.00;;;;;;;;;;10330141;28;20081;-68
2024/01/10 14:07:14;;;;;;;7.15;4.28;;;;;;;;;;10303144;28;20148;-68
2024/01/10 14:12:15;;;;;;;8.50;4.47;;;;;;;;;;10318434;28;20026;-73
2024/01/10 14:17:15;;;;;;;7.00;3.70;;;;;;;;;;10327934;28;20030;-74
2024/01/10 14:22:17;;;;;;;5.55;3.80;;;;;;;;;;10323135;28;20085;-70
2024/01/10 14:27:18;;;;;;;8.63;4.05;;;;;;;;;;10324725;28;20046;-73
2024/01/10 14:32:18;;;;;;;5.60;4.05;;;;;;;;;;10321630;28;20062;-70
2024/01/10 14:37:20;;;;;;;9.27;4.18;;;;;;;;;;10339485;28;20050;-68
2024/01/10 14:42:21;;;;;;;7.00;4.10;;;;;;;;;;10311269;28;20027;-67
2024/01/10 14:47:22;;;;;;;10.75;3.78;;;;;;;;;;10316736;28;20025;-69
2024/01/10 14:52:25;;;;;;;8.63;4.10;;;;;;;;;;10310698;28;20057;-70
2024/01/10 14:57:25;;;;;;;9.45;4.60;;;;;;;;;;10280627;28;20180;-68
2024/01/10 15:02:26;;;;;;;12.77;4.50;;;;;;;;;;10301339;28;20547;-66
2024/01/10 15:07:27;;;;;;;5.25;3.53;;;;;;;;;;10305171;28;20029;-70
2024/01/10 15:12:28;;;;;;;5.00;3.63;;;;;;;;;;10324083;28;20034;-70
2024/01/10 15:17:29;;;;;;;4.72;3.80;;;;;;;;;;10317516;28;20042;-67
2024/01/10 15:22:29;;;;;;;4.82;3.47;;;;;;;;;;10305633;28;20062;-70
2024/01/10 15:27:30;;;;;;;5.80;3.90;;;;;;;;;;10302752;28;20030;-70
2024/01/10 15:32:30;;;;;;;5.25;3.70;;;;;;;;;;10319174;28;20205;-71
2024/01/10 15:37:31;;;;;;;6.57;3.58;;;;;;;;;;10310009;28;20387;-70
2024/01/10 15:42:32;;;;;;;6.15;4.00;;;;;;;;;;10322186;28;20034;-68
2024/01/10 15:47:32;;;;;;;5.45;3.83;;;;;;;;;;10313596;28;20358;-69
2024/01/10 15:52:34;;;;;;;6.18;3.65;;;;;;;;;;10300262;28;20382;-71
2024/01/10 15:57:34;;;;;;;4.93;3.47;;;;;;;;;;10318631;28;20041;-71
2024/01/10 16:02:35;;;;;;;6.10;3.50;;;;;;;;;;10310297;28;20041;-70
2024/01/10 16:07:36;;;;;;;4.47;3.47;;;;;;;;;;10317391;28;20080;-70
2024/01/10 16:12:36;;;;;;;5.78;3.92;;;;;;;;;;10318301;28;20394;-68
2024/01/10 16:17:37;;;;;;;5.65;3.58;;;;;;;;;;10261863;28;20112;-71
2024/01/10 16:22:38;;;;;;;7.93;3.63;;;;;;;;;;10255524;28;20018;-68
2024/01/10 16:27:38;;;;;;;7.13;4.13;;;;;;;;;;10255510;28;20030;-67
2024/01/10 16:32:39;;;;;;;7.47;4.32;;;;;;;;;;10257484;28;20026;-70
2024/01/10 16:37:40;;;;;;;6.10;3.72;;;;;;;;;;10254582;28;20049;-71
2024/01/10 16:42:40;;;;;;;6.03;3.97;;;;;;;;;;10253622;28;20038;-71
2024/01/10 16:47:41;;;;;;;6.22;3.72;;;;;;;;;;10250582;28;20069;-71
2024/01/10 16:52:41;;;;;;;6.00;3.50;;;;;;;;;;10247011;28;20473;-68
2024/01/10 16:57:42;;;;;;;7.05;3.85;;;;;;;;;;10252840;28;20121;-68
2024/01/10 17:02:43;;;;;;;6.38;3.88;;;;;;;;;;10254290;28;21784;-69
2024/01/10 17:07:43;;;;;;;7.93;4.05;;;;;;;;;;10244261;28;20037;-69
2024/01/10 17:12:44;;;;;;;5.68;3.60;;;;;;;;;;10254206;28;20036;-68
2024/01/10 17:17:45;;;;;;;7.20;4.70;;;;;;;;;;10245148;28;20904;-67
2024/01/10 17:22:46;;;;;;;7.65;4.30;;;;;;;;;;10247460;28;20117;-68
2024/01/10 17:27:46;;;;;;;5.80;3.85;;;;;;;;;;10246471;28;20053;-67
2024/01/10 17:32:47;;;;;;;5.97;4.30;;;;;;;;;;10249114;28;20018;-67
2024/01/10 17:37:48;;;;;;;5.80;3.35;;;;;;;;;;10239333;28;20080;-66
2024/01/10 17:42:49;;;;;;;10.65;4.60;;;;;;;;;;10261604;28;20041;-66
2024/01/10 17:47:49;;;;;;;7.47;4.47;;;;;;;;;;10242770;28;20025;-69
2024/01/10 17:52:50;;;;;;;8.60;4.40;;;;;;;;;;10245003;28;20057;-67
2024/01/10 17:57:50;;;;;;;5.90;4.30;;;;;;;;;;10249125;28;20034;-68
2024/01/10 18:02:51;;;;;;;8.25;4.50;;;;;;;;;;10245444;28;20038;-67
2024/01/10 18:07:52;;;;;;;7.03;4.70;;;;;;;;;;10290799;28;20034;-67
2024/01/10 18:12:54;;;;;;;10.40;4.55;;;;;;;;;;10276605;28;20501;-67
2024/01/10 18:17:55;;;;;;;7.80;4.60;;;;;;;;;;10263287;28;20112;-68
2024/01/10 18:22:56;;;;;;;9.18;5.13;;;;;;;;;;10312486;28;20038;-67
2024/01/10 18:27:56;;;;;;;9.65;4.75;;;;;;;;;;10310257;28;20030;-68
2024/01/10 18:32:59;;;;;;;6.78;4.60;;;;;;;;;;10283754;28;20026;-67
2024/01/10 18:37:59;;;;;;;12.18;5.32;;;;;;;;;;10304651;28;20473;-67
2024/01/10 18:43:00;;;;;;;12.27;5.28;;;;;;;;;;10241761;28;20065;-68
2024/01/10 18:48:02;;;;;;;7.85;5.03;;;;;;;;;;10227313;28;20063;-68
2024/01/10 18:53:03;;;;;;;7.40;5.03;;;;;;;;;;10219934;28;20034;-67
2024/01/10 18:58:05;;;;;;;7.35;4.80;;;;;;;;;;10233046;28;20033;-67
2024/01/10 19:03:06;;;;;;;9.43;5.53;;;;;;;;;;10242641;28;20023;-68
2024/01/10 19:08:06;;;;;;;9.00;5.85;;;;;;;;;;10251840;28;20395;-67
2024/01/10 19:13:07;;;;;;;10.10;5.78;;;;;;;;;;10248527;28;20057;-67
2024/01/10 19:18:07;;;;;;;11.32;5.75;;;;;;;;;;10270313;28;20034;-69
2024/01/10 19:23:08;;;;;;;12.75;6.10;;;;;;;;;;10311674;28;20033;-69
2024/01/10 19:28:09;;;;;;;12.45;6.65;;;;;;;;;;10315115;28;20023;-69
2024/01/10 19:33:10;;;;;;;11.38;6.95;;;;;;;;;;10324063;28;20026;-69
2024/01/10 19:38:11;;;;;;;13.07;7.18;;;;;;;;;;10326164;28;20042;-68
2024/01/10 19:43:22;;;;;;;15.60;7.55;;;;;;;;;;10321683;28;20120;-68
2024/01/10 19:48:23;;;;;;;16.00;7.63;;;;;;;;;;10325101;28;20034;-68
2024/01/10 19:53:23;;;;;;;15.15;7.45;;;;;;;;;;10284634;28;20038;-68
2024/01/10 19:58:24;;;;;;;17.58;7.22;;;;;;;;;;10297330;28;20038;-68
2024/01/10 20:03:25;;;;;;;14.20;7.43;;;;;;;;;;10244646;28;20049;-69
2024/01/10 20:08:26;;;;;;;9.93;7.13;;;;;;;;;;10238605;28;20030;-68
2024/01/10 20:13:27;;;;;;;13.02;6.45;;;;;;;;;;10245517;28;20026;-68
2024/01/10 20:18:28;;;;;;;12.82;6.85;;;;;;;;;;10269820;28;20123;-69
2024/01/10 20:23:29;;;;;;;16.00;7.57;;;;;;;;;;10320035;28;20030;-63
2024/01/10 20:28:29;;;;;;;11.63;7.25;;;;;;;;;;10275955;28;20034;-63
2024/01/10 20:33:30;;;;;;;10.70;6.80;;;;;;;;;;10319836;28;20030;-64
2024/01/10 20:38:30;;;;;;;12.30;7.05;;;;;;;;;;10322681;28;20050;-63
2024/01/10 20:43:31;;;;;;;12.15;6.82;;;;;;;;;;10322794;28;20080;-64
2024/01/10 20:48:32;;;;;;;8.98;7.00;;;;;;;;;;10314279;28;20027;-64
2024/01/10 20:53:34;;;;;;;13.98;7.10;;;;;;;;;;10323642;28;20490;-64
2024/01/10 20:58:34;;;;;;;10.82;7.07;;;;;;;;;;10319258;28;20037;-68
2024/01/10 21:03:35;;;;;;;12.00;7.05;;;;;;;;;;10306139;28;20471;-64
2024/01/10 21:08:36;;;;;;;9.57;6.55;;;;;;;;;;10320571;28;20043;-64
2024/01/10 21:13:36;;;;;;;13.35;7.10;;;;;;;;;;10319641;28;20038;-66
2024/01/10 21:18:37;;;;;;;14.32;7.22;;;;;;;;;;10324691;28;20118;-66
2024/01/10 21:23:38;;;;;;;11.13;6.82;;;;;;;;;;10313395;28;20030;-64
2024/01/10 21:28:38;;;;;;;13.90;6.72;;;;;;;;;;10308631;28;20101;-63
2024/01/10 21:33:39;;;;;;;9.57;6.32;;;;;;;;;;10318177;28;20065;-64
2024/01/10 21:38:41;;;;;;;10.32;7.20;;;;;;;;;;10324589;28;20046;-64
2024/01/10 21:43:42;;;;;;;9.38;6.80;;;;;;;;;;10322788;28;20038;-64
2024/01/10 21:48:42;;;;;;;12.30;7.28;;;;;;;;;;10300732;28;20035;-64
2024/01/10 21:53:45;;;;;;;13.18;7.57;;;;;;;;;;10318091;28;20289;-66
2024/01/10 21:58:46;;;;;;;11.77;7.60;;;;;;;;;;10309295;28;20034;-64
2024/01/10 22:03:49;;;;;;;10.90;6.90;;;;;;;;;;10299345;28;20043;-64
2024/01/10 22:08:50;;;;;;;10.38;7.18;;;;;;;;;;10316526;28;20026;-64
2024/01/10 22:13:50;;;;;;;12.88;6.60;;;;;;;;;;10319082;28;20466;-64
2024/01/10 22:18:51;;;;;;;7.82;6.10;;;;;;;;;;10304127;28;20092;-64
2024/01/10 22:23:53;;;;;;;8.80;6.43;;;;;;;;;;10321996;28;20060;-65
2024/01/10 22:28:53;;;;;;;8.25;6.70;;;;;;;;;;10320813;28;20034;-63
2024/01/10 22:33:54;;;;;;;10.77;7.15;;;;;;;;;;10315771;28;20489;-64
2024/01/10 22:38:55;;;;;;;13.43;8.00;;;;;;;;;;10280940;28;20386;-63
2024/01/10 22:43:55;;;;;;;9.27;6.55;;;;;;;;;;10301474;28;21455;-63
2024/01/10 22:48:56;;;;;;;11.00;6.43;;;;;;;;;;10312920;28;20584;-63
2024/01/10 22:53:57;;;;;;;16.27;7.20;;;;;;;;;;10302063;28;20060;-71
2024/01/10 22:58:57;;;;;;;11.93;7.57;;;;;;;;;;10295024;28;20036;-72
2024/01/10 23:03:59;;;;;;;13.88;7.22;;;;;;;;;;10266853;28;20030;-71
2024/01/10 23:08:59;;;;;;;17.30;6.85;;;;;;;;;;10315230;28;20113;-74
2024/01/10 23:14:00;;;;;;;9.75;6.38;;;;;;;;;;10319228;28;20030;-70
2024/01/10 23:19:01;;;;;;;11.00;7.43;;;;;;;;;;10319773;28;20042;-68
2024/01/10 23:24:02;;;;;;;10.40;6.30;;;;;;;;;;10309187;28;20035;-67
2024/01/10 23:29:03;;;;;;;8.43;6.13;;;;;;;;;;10298286;28;20112;-69
2024/01/10 23:34:04;;;;;;;12.05;6.72;;;;;;;;;;10328150;28;20584;-68
2024/01/10 23:39:04;;;;;;;11.07;6.38;;;;;;;;;;10315478;28;20493;-67
2024/01/10 23:44:05;;;;;;;8.55;6.18;;;;;;;;;;10315562;28;20038;-68
2024/01/10 23:49:05;;;;;;;9.98;6.40;;;;;;;;;;10323089;28;20022;-69
2024/01/10 23:54:06;;;;;;;11.88;6.93;;;;;;;;;;10317850;28;20037;-68
2024/01/10 23:59:07;;;;;;;17.70;6.72;;;;;;;;;;10344034;28;20034;-68
